createdAt,value
2019-01-09T00:01:32.105Z,67.40
2019-01-09T00:04:01.319Z,67.30
2019-01-09T00:06:29.374Z,67.30
2019-01-09T00:08:57.547Z,67.00
2019-01-09T00:11:25.613Z,66.80
2019-01-09T00:13:53.592Z,66.80
2019-01-09T00:16:21.867Z,66.20
2019-01-09T00:18:49.835Z,66.00
2019-01-09T00:21:17.877Z,66.00
2019-01-09T00:23:45.853Z,65.70
2019-01-09T00:26:13.848Z,65.30
2019-01-09T00:28:41.919Z,65.50
2019-01-09T00:31:09.990Z,65.50
2019-01-09T00:33:38.267Z,65.30
2019-01-09T00:36:06.422Z,64.80
2019-01-09T00:38:34.482Z,65.00
2019-01-09T00:41:02.584Z,65.10
2019-01-09T00:43:30.530Z,65.20
2019-01-09T00:45:58.568Z,65.50
2019-01-09T00:48:26.906Z,66.10
2019-01-09T00:50:55.179Z,66.40
2019-01-09T00:53:23.120Z,67.30
2019-01-09T00:55:51.424Z,67.20
2019-01-09T00:58:19.704Z,67.40
2019-01-09T01:00:47.773Z,68.10
2019-01-09T01:03:15.950Z,68.10
2019-01-09T01:05:46.212Z,68.00
2019-01-09T01:08:13.526Z,68.00
2019-01-09T01:10:41.700Z,68.00
2019-01-09T01:13:09.748Z,67.80
2019-01-09T01:15:37.942Z,68.70
2019-01-09T01:18:06.111Z,67.80
2019-01-09T01:20:35.462Z,67.60
2019-01-09T01:23:03.494Z,68.00
2019-01-09T01:25:31.542Z,67.90
2019-01-09T01:27:59.534Z,68.10
2019-01-09T01:30:28.703Z,68.40
2019-01-09T01:32:56.804Z,69.10
2019-01-09T01:35:24.877Z,69.30
2019-01-09T01:37:52.820Z,69.10
2019-01-09T01:40:20.915Z,67.60
2019-01-09T01:42:50.611Z,67.40
2019-01-09T01:45:18.594Z,67.60
2019-01-09T01:47:46.636Z,67.90
2019-01-09T01:50:14.640Z,69.00
2019-01-09T01:52:42.579Z,67.80
2019-01-09T01:55:10.867Z,67.80
2019-01-09T01:57:39.943Z,67.70
2019-01-09T02:00:08.128Z,67.70
2019-01-09T02:02:37.950Z,67.70
2019-01-09T02:05:06.143Z,68.50
2019-01-09T02:07:43.325Z,67.80
2019-01-09T02:10:11.395Z,67.80
2019-01-09T02:12:39.752Z,67.90
2019-01-09T02:15:07.726Z,67.90
2019-01-09T02:17:35.713Z,68.10
2019-01-09T02:20:03.892Z,69.90
2019-01-09T02:22:32.167Z,69.60
2019-01-09T02:25:00.340Z,69.60
2019-01-09T02:27:28.309Z,70.10
2019-01-09T02:29:56.384Z,70.60
2019-01-09T02:32:25.952Z,70.30
2019-01-09T02:34:54.164Z,70.10
2019-01-09T02:37:22.133Z,70.10
2019-01-09T02:39:50.286Z,70.30
2019-01-09T02:42:18.275Z,70.30
2019-01-09T02:44:46.453Z,70.40
2019-01-09T02:47:14.625Z,70.70
2019-01-09T02:49:42.596Z,70.50
2019-01-09T02:52:10.535Z,71.40
2019-01-09T02:54:38.609Z,71.50
2019-01-09T02:57:06.711Z,70.70
2019-01-09T02:59:36.859Z,70.70
2019-01-09T03:02:04.901Z,70.50
2019-01-09T03:04:32.971Z,71.00
2019-01-09T03:07:01.019Z,71.20
2019-01-09T03:09:29.632Z,71.10
2019-01-09T03:11:57.677Z,71.60
2019-01-09T03:14:25.676Z,71.00
2019-01-09T03:16:53.717Z,71.00
2019-01-09T03:19:21.709Z,70.80
2019-01-09T03:21:49.652Z,71.70
2019-01-09T03:24:18.635Z,71.40
2019-01-09T03:26:46.854Z,71.30
2019-01-09T03:29:14.902Z,70.90
2019-01-09T03:31:42.819Z,70.90
2019-01-09T03:34:11.161Z,70.20
2019-01-09T03:36:39.113Z,70.60
2019-01-09T03:39:07.103Z,70.30
2019-01-09T03:41:35.069Z,70.20
2019-01-09T03:44:03.347Z,70.40
2019-01-09T03:46:31.626Z,70.20
2019-01-09T03:48:59.697Z,70.60
2019-01-09T03:51:27.773Z,69.30
2019-01-09T03:53:55.736Z,69.00
2019-01-09T03:56:23.810Z,70.00
2019-01-09T03:58:52.373Z,69.10
2019-01-09T04:01:20.441Z,68.80
2019-01-09T04:03:48.638Z,68.60
2019-01-09T04:06:16.686Z,69.60
2019-01-09T04:08:46.625Z,68.30
2019-01-09T04:11:14.575Z,67.30
2019-01-09T04:13:42.772Z,66.20
2019-01-09T04:16:11.357Z,64.90
2019-01-09T04:18:39.530Z,64.40
2019-01-09T04:21:07.574Z,64.80
2019-01-09T04:23:35.761Z,65.00
2019-01-09T04:26:03.746Z,65.30
2019-01-09T04:28:31.686Z,65.40
2019-01-09T04:30:59.783Z,65.70
2019-01-09T04:33:27.860Z,67.20
2019-01-09T04:35:56.030Z,67.00
2019-01-09T04:38:24.003Z,66.80
2019-01-09T04:40:52.488Z,67.70
2019-01-09T04:43:20.641Z,67.90
2019-01-09T04:45:49.758Z,68.30
2019-01-09T04:48:17.797Z,68.90
2019-01-09T04:50:45.791Z,69.00
2019-01-09T04:53:14.072Z,69.50
2019-01-09T04:55:42.037Z,69.60
2019-01-09T04:58:10.007Z,70.00
2019-01-09T05:00:38.387Z,71.00
2019-01-09T05:03:06.333Z,70.20
2019-01-09T05:05:35.480Z,70.30
2019-01-09T05:08:03.937Z,71.10
2019-01-09T05:10:32.392Z,71.60
2019-01-09T05:13:00.463Z,71.70
2019-01-09T05:15:28.558Z,72.10
2019-01-09T05:17:58.378Z,72.30
2019-01-09T05:20:26.550Z,72.60
2019-01-09T05:22:54.540Z,72.50
2019-01-09T05:25:23.613Z,72.80
2019-01-09T05:27:51.788Z,72.80
2019-01-09T05:30:21.720Z,72.80
2019-01-09T05:32:49.751Z,73.40
2019-01-09T05:35:19.821Z,73.70
2019-01-09T05:37:47.738Z,74.10
2019-01-09T05:40:16.143Z,73.60
2019-01-09T05:42:44.390Z,74.30
2019-01-09T05:45:12.383Z,73.80
2019-01-09T05:47:40.562Z,74.40
2019-01-09T05:50:08.561Z,75.00
2019-01-09T05:52:38.807Z,75.10
2019-01-09T05:55:07.024Z,75.10
2019-01-09T05:57:35.199Z,75.40
2019-01-09T06:00:03.277Z,75.90
2019-01-09T06:02:33.377Z,76.60
2019-01-09T06:05:01.147Z,76.50
2019-01-09T06:07:29.204Z,76.90
2019-01-09T06:09:57.299Z,77.60
2019-01-09T06:12:25.473Z,76.90
2019-01-09T06:14:55.288Z,77.20
2019-01-09T06:17:23.229Z,77.50
2019-01-09T06:19:51.227Z,77.30
2019-01-09T06:22:19.398Z,77.50
2019-01-09T06:24:47.573Z,77.10
2019-01-09T06:27:15.545Z,78.00
2019-01-09T06:29:43.614Z,77.10
2019-01-09T06:32:11.585Z,77.30
2019-01-09T06:34:39.553Z,77.40
2019-01-09T06:37:07.639Z,77.40
2019-01-09T06:39:36.733Z,77.70
2019-01-09T06:42:04.690Z,77.50
2019-01-09T06:44:33.755Z,78.00
2019-01-09T06:47:01.840Z,78.40
2019-01-09T06:49:31.107Z,78.50
2019-01-09T06:51:59.128Z,78.50
2019-01-09T06:54:29.159Z,79.20
2019-01-09T06:56:57.216Z,79.90
2019-01-09T06:59:25.493Z,81.10
2019-01-09T07:01:53.668Z,81.20
2019-01-09T07:04:21.742Z,81.30
2019-01-09T07:06:49.823Z,82.00
2019-01-09T07:09:17.694Z,82.60
2019-01-09T07:11:45.755Z,82.60
2019-01-09T07:14:13.721Z,82.60
2019-01-09T07:16:41.894Z,82.70
2019-01-09T07:19:09.943Z,83.00
2019-01-09T07:21:45.464Z,83.30
2019-01-09T07:24:09.372Z,84.20
2019-01-09T07:26:38.076Z,85.00
2019-01-09T07:29:06.322Z,85.10
2019-01-09T07:31:34.626Z,85.40
2019-01-09T07:34:02.698Z,85.60
2019-01-09T07:36:32.196Z,86.40
2019-01-09T07:39:00.172Z,86.10
2019-01-09T07:41:28.142Z,86.20
2019-01-09T07:43:56.081Z,86.00
2019-01-09T07:46:24.080Z,85.00
2019-01-09T07:48:52.154Z,81.80
2019-01-09T07:51:20.093Z,78.30
2019-01-09T07:53:48.091Z,75.90
2019-01-09T07:56:16.204Z,74.20
2019-01-09T07:58:45.441Z,72.60
2019-01-09T08:01:13.426Z,70.20
2019-01-09T08:03:41.506Z,68.00
2019-01-09T08:06:10.577Z,65.30
2019-01-09T08:08:38.547Z,65.40
2019-01-09T08:11:06.646Z,64.00
2019-01-09T08:13:34.599Z,61.60
2019-01-09T08:16:03.857Z,59.90
2019-01-09T08:18:31.991Z,58.70
2019-01-09T08:21:05.287Z,58.00
2019-01-09T08:23:29.849Z,55.10
2019-01-09T08:25:57.838Z,54.50
2019-01-09T08:28:25.786Z,53.60
2019-01-09T08:30:53.778Z,52.40
2019-01-09T08:33:21.745Z,52.20
2019-01-09T08:35:50.061Z,51.70
2019-01-09T08:38:18.183Z,51.00
2019-01-09T08:40:46.473Z,50.30
2019-01-09T08:43:14.627Z,49.20
2019-01-09T08:45:42.811Z,47.30
2019-01-09T08:48:11.001Z,48.50
2019-01-09T08:50:39.067Z,47.10
2019-01-09T08:53:07.141Z,45.70
2019-01-09T08:55:35.111Z,45.00
2019-01-09T08:58:02.997Z,45.10
2019-01-09T09:00:31.356Z,45.20
2019-01-09T09:02:59.432Z,44.90
2019-01-09T09:05:27.371Z,44.70
2019-01-09T09:07:55.575Z,44.20
2019-01-09T09:10:23.541Z,43.70
2019-01-09T09:12:51.489Z,43.60
2019-01-09T09:15:19.451Z,42.50
2019-01-09T09:17:47.537Z,41.80
2019-01-09T09:20:15.634Z,40.90
2019-01-09T09:22:43.608Z,39.90
2019-01-09T09:25:11.772Z,40.20
2019-01-09T09:27:39.735Z,40.60
2019-01-09T09:30:07.943Z,40.60
2019-01-09T09:32:36.086Z,40.60
2019-01-09T09:35:04.056Z,40.30
2019-01-09T09:37:32.027Z,39.40
2019-01-09T09:39:59.968Z,38.90
2019-01-09T09:42:28.462Z,38.40
2019-01-09T09:44:56.413Z,37.70
2019-01-09T09:47:24.497Z,37.10
2019-01-09T09:49:52.562Z,38.10
2019-01-09T09:52:20.767Z,37.80
2019-01-09T09:54:50.434Z,38.00
2019-01-09T09:57:18.626Z,38.40
2019-01-09T09:59:46.821Z,36.90
2019-01-09T10:02:14.999Z,36.80
2019-01-09T10:04:42.966Z,36.80
2019-01-09T10:07:11.193Z,37.40
2019-01-09T10:09:39.191Z,36.60
2019-01-09T10:12:07.159Z,36.80
2019-01-09T10:14:35.239Z,37.10
2019-01-09T10:17:03.641Z,36.40
2019-01-09T10:19:31.601Z,36.30
2019-01-09T10:21:59.775Z,35.50
2019-01-09T10:24:27.743Z,35.00
2019-01-09T10:26:56.020Z,35.40
2019-01-09T10:29:24.095Z,35.00
2019-01-09T10:31:53.085Z,35.30
2019-01-09T10:34:21.140Z,35.70
2019-01-09T10:36:49.206Z,35.40
2019-01-09T10:39:17.201Z,34.30
2019-01-09T10:41:45.172Z,32.70
2019-01-09T10:44:18.819Z,33.40
2019-01-09T10:46:43.052Z,33.60
2019-01-09T10:49:11.439Z,33.10
2019-01-09T10:51:39.501Z,33.00
2019-01-09T10:54:07.482Z,32.70
2019-01-09T10:56:35.543Z,32.90
2019-01-09T10:59:03.457Z,33.00
2019-01-09T11:01:33.308Z,32.20
2019-01-09T11:04:01.404Z,32.00
2019-01-09T11:06:29.445Z,31.20
2019-01-09T11:08:57.954Z,30.60
2019-01-09T11:11:26.312Z,31.60
2019-01-09T11:13:54.301Z,31.10
2019-01-09T11:16:22.241Z,32.00
2019-01-09T11:18:50.238Z,33.10
2019-01-09T11:21:18.207Z,32.90
2019-01-09T11:23:47.405Z,33.10
2019-01-09T11:26:17.178Z,33.90
2019-01-09T11:28:45.290Z,35.30
2019-01-09T11:31:13.445Z,36.50
2019-01-09T11:33:41.509Z,38.70
2019-01-09T11:36:09.608Z,40.10
2019-01-09T11:38:38.531Z,42.40
2019-01-09T11:41:06.550Z,44.50
2019-01-09T11:43:34.656Z,45.70
2019-01-09T11:46:02.691Z,47.30
2019-01-09T11:48:32.250Z,48.70
2019-01-09T11:51:00.393Z,50.00
2019-01-09T11:53:28.645Z,51.00
2019-01-09T11:55:58.448Z,51.50
2019-01-09T11:58:26.495Z,52.20
2019-01-09T12:00:54.818Z,52.50
2019-01-09T12:03:24.619Z,52.30
2019-01-09T12:05:52.615Z,52.30
2019-01-09T12:08:20.711Z,53.10
2019-01-09T12:10:48.884Z,53.80
2019-01-09T12:13:16.905Z,53.30
2019-01-09T12:15:44.902Z,53.50
2019-01-09T12:18:12.845Z,53.10
2019-01-09T12:20:40.814Z,54.50
2019-01-09T12:23:08.809Z,55.40
2019-01-09T12:25:37.711Z,54.70
2019-01-09T12:28:06.879Z,55.20
2019-01-09T12:30:34.868Z,55.00
2019-01-09T12:33:02.838Z,54.70
2019-01-09T12:35:30.799Z,53.80
2019-01-09T12:37:58.878Z,54.00
2019-01-09T12:40:26.849Z,53.30
2019-01-09T12:42:54.822Z,52.80
2019-01-09T12:45:22.863Z,53.10
2019-01-09T12:47:50.960Z,51.90
2019-01-09T12:50:19.430Z,51.10
2019-01-09T12:52:47.390Z,50.70
2019-01-09T12:55:15.484Z,48.10
2019-01-09T12:57:44.766Z,47.50
2019-01-09T13:00:12.958Z,46.50
2019-01-09T13:02:41.326Z,46.80
2019-01-09T13:05:09.410Z,45.80
2019-01-09T13:07:37.583Z,45.00
2019-01-09T13:10:07.236Z,44.30
2019-01-09T13:12:35.286Z,43.90
2019-01-09T13:15:03.335Z,42.60
2019-01-09T13:17:31.510Z,42.40
2019-01-09T13:19:59.583Z,43.20
2019-01-09T13:22:27.753Z,44.40
2019-01-09T13:24:56.032Z,46.60
2019-01-09T13:27:24.001Z,49.60
2019-01-09T13:29:51.942Z,52.00
2019-01-09T13:32:19.940Z,54.60
2019-01-09T13:34:47.917Z,56.70
2019-01-09T13:37:15.983Z,58.40
2019-01-09T13:39:43.921Z,59.10
2019-01-09T13:42:11.922Z,60.00
2019-01-09T13:44:41.608Z,62.30
2019-01-09T13:47:09.599Z,62.80
2019-01-09T13:49:37.642Z,63.80
2019-01-09T13:52:05.646Z,64.70
2019-01-09T13:54:33.610Z,65.50
2019-01-09T13:57:01.579Z,66.50
2019-01-09T13:59:29.628Z,67.20
2019-01-09T14:01:57.595Z,67.70
2019-01-09T14:04:27.311Z,68.80
2019-01-09T14:06:55.404Z,68.50
2019-01-09T14:09:24.883Z,68.30
2019-01-09T14:11:52.878Z,69.00
2019-01-09T14:14:21.925Z,69.10
2019-01-09T14:16:49.918Z,69.60
2019-01-09T14:19:19.609Z,70.10
2019-01-09T14:21:47.832Z,70.00
2019-01-09T14:24:17.616Z,70.30
2019-01-09T14:26:45.713Z,70.70
2019-01-09T14:29:14.705Z,70.60
2019-01-09T14:31:42.682Z,70.80
2019-01-09T14:34:10.749Z,71.10
2019-01-09T14:36:38.793Z,71.10
2019-01-09T14:39:06.764Z,72.10
2019-01-09T14:41:34.831Z,72.30
2019-01-09T14:44:02.809Z,72.70
2019-01-09T14:46:30.782Z,72.00
2019-01-09T14:48:58.871Z,73.80
2019-01-09T14:51:27.119Z,73.90
2019-01-09T14:53:55.116Z,73.60
2019-01-09T14:56:23.087Z,74.10
2019-01-09T14:58:51.259Z,75.60
2019-01-09T15:01:19.230Z,75.70
2019-01-09T15:03:47.180Z,74.90
2019-01-09T15:06:15.195Z,74.80
2019-01-09T15:08:43.113Z,74.70
2019-01-09T15:11:11.093Z,75.10
2019-01-09T15:13:39.078Z,75.50
2019-01-09T15:16:07.017Z,76.30
2019-01-09T15:18:35.119Z,75.70
2019-01-09T15:21:03.087Z,75.50
2019-01-09T15:23:31.162Z,75.80
2019-01-09T15:25:59.106Z,75.60
2019-01-09T15:28:27.099Z,75.80
2019-01-09T15:30:55.069Z,75.80
2019-01-09T15:33:23.118Z,76.40
2019-01-09T15:35:51.517Z,76.90
2019-01-09T15:38:20.036Z,77.90
2019-01-09T15:40:48.179Z,77.20
2019-01-09T15:43:16.347Z,77.60
2019-01-09T15:45:44.326Z,78.00
2019-01-09T15:48:12.287Z,78.20
2019-01-09T15:50:40.258Z,78.70
2019-01-09T15:53:08.328Z,78.50
2019-01-09T15:55:36.374Z,79.90
2019-01-09T15:58:04.494Z,79.40
2019-01-09T16:00:32.927Z,79.90
2019-01-09T16:03:01.126Z,80.00
2019-01-09T16:05:31.049Z,79.90
2019-01-09T16:07:59.090Z,81.10
2019-01-09T16:10:27.093Z,81.40
2019-01-09T16:12:55.361Z,81.30
2019-01-09T16:15:23.432Z,81.60
2019-01-09T16:17:51.527Z,82.30
2019-01-09T16:20:19.557Z,82.40
2019-01-09T16:22:47.725Z,82.60
2019-01-09T16:25:15.699Z,82.60
2019-01-09T16:27:43.774Z,82.50
2019-01-09T16:30:11.838Z,80.60
2019-01-09T16:32:39.835Z,79.70
2019-01-09T16:35:07.786Z,80.00
2019-01-09T16:37:35.746Z,78.90
2019-01-09T16:40:03.845Z,78.70
2019-01-09T16:42:31.812Z,80.00
2019-01-09T16:44:59.988Z,81.20
2019-01-09T16:47:27.934Z,81.80
2019-01-09T16:49:55.932Z,82.70
2019-01-09T16:52:24.099Z,82.80
2019-01-09T16:54:52.406Z,82.30
2019-01-09T16:57:20.552Z,82.70
2019-01-09T16:59:50.022Z,82.20
2019-01-09T17:02:18.016Z,82.20
2019-01-09T17:04:47.933Z,81.00
2019-01-09T17:07:15.995Z,80.60
2019-01-09T17:09:43.981Z,80.20
2019-01-09T17:12:11.954Z,80.30
2019-01-09T17:14:40.305Z,80.00
2019-01-09T17:17:08.408Z,79.70
2019-01-09T17:19:36.474Z,80.60
2019-01-09T17:22:04.626Z,79.90
2019-01-09T17:24:33.788Z,80.20
2019-01-09T17:27:01.890Z,80.00
2019-01-09T17:29:29.967Z,79.50
2019-01-09T17:31:58.574Z,78.80
2019-01-09T17:34:26.520Z,79.00
2019-01-09T17:36:55.025Z,79.20
2019-01-09T17:39:24.710Z,79.20
2019-01-09T17:41:53.011Z,79.60
2019-01-09T17:44:21.502Z,79.40
2019-01-09T17:46:50.362Z,79.20
2019-01-09T17:49:19.299Z,79.20
2019-01-09T17:51:47.653Z,79.30
2019-01-09T17:54:15.609Z,79.10
2019-01-09T17:56:43.881Z,80.20
2019-01-09T17:59:11.874Z,79.40
2019-01-09T18:01:40.051Z,79.80
2019-01-09T18:04:09.516Z,79.60
2019-01-09T18:06:37.911Z,79.50
2019-01-09T18:09:07.760Z,79.70
2019-01-09T18:11:37.144Z,79.90
2019-01-09T18:14:05.119Z,79.00
2019-01-09T18:16:35.304Z,79.30
2019-01-09T18:19:03.307Z,79.00
2019-01-09T18:21:31.484Z,78.90
2019-01-09T18:23:59.430Z,78.70
2019-01-09T18:26:27.594Z,78.60
2019-01-09T18:28:55.678Z,78.20
2019-01-09T18:31:23.665Z,77.50
2019-01-09T18:33:51.711Z,77.00
2019-01-09T18:36:19.808Z,76.90
2019-01-09T18:38:48.161Z,77.60
2019-01-09T18:41:16.134Z,78.30
2019-01-09T18:43:44.127Z,79.70
2019-01-09T18:46:13.668Z,79.30
2019-01-09T18:48:42.096Z,80.80
2019-01-09T18:51:10.053Z,80.70
2019-01-09T18:53:38.053Z,81.20
2019-01-09T18:56:06.123Z,81.50
2019-01-09T18:58:34.067Z,81.90
2019-01-09T19:01:02.172Z,82.70
2019-01-09T19:03:30.138Z,82.60
2019-01-09T19:05:59.442Z,83.00
2019-01-09T19:08:27.511Z,83.50
2019-01-09T19:10:55.452Z,83.90
2019-01-09T19:13:25.071Z,83.70
2019-01-09T19:15:53.156Z,83.80
2019-01-09T19:18:21.613Z,83.80
2019-01-09T19:20:49.813Z,83.70
2019-01-09T19:23:17.885Z,83.50
2019-01-09T19:25:45.852Z,83.80
2019-01-09T19:28:13.831Z,84.20
2019-01-09T19:30:43.826Z,84.00
2019-01-09T19:33:11.891Z,84.20
2019-01-09T19:35:39.982Z,84.30
2019-01-09T19:38:07.933Z,84.50
2019-01-09T19:40:36.434Z,84.60
2019-01-09T19:43:04.403Z,85.00
2019-01-09T19:45:32.456Z,84.90
2019-01-09T19:48:00.650Z,86.00
2019-01-09T19:50:28.598Z,84.90
2019-01-09T19:52:56.590Z,85.70
2019-01-09T19:55:24.866Z,85.60
2019-01-09T19:57:53.015Z,86.60
2019-01-09T20:00:24.080Z,86.70
2019-01-09T20:02:52.356Z,86.60
2019-01-09T20:05:20.531Z,86.50
2019-01-09T20:07:49.526Z,86.30
2019-01-09T20:10:18.400Z,85.70
2019-01-09T20:12:46.431Z,85.80
2019-01-09T20:15:14.550Z,84.50
2019-01-09T20:17:42.632Z,84.00
2019-01-09T20:20:10.811Z,82.30
2019-01-09T20:22:38.879Z,81.20
2019-01-09T20:25:06.952Z,81.10
2019-01-09T20:27:36.094Z,81.10
2019-01-09T20:30:04.126Z,80.60
2019-01-09T20:56:22.885Z,80.70
2019-01-09T20:58:51.269Z,80.60
2019-01-09T21:01:21.168Z,80.80
2019-01-09T21:03:49.721Z,80.60
2019-01-09T21:06:18.806Z,80.20
2019-01-09T21:08:47.316Z,80.50
2019-01-09T21:11:16.179Z,80.50
2019-01-09T21:13:47.723Z,80.70
2019-01-09T21:16:17.684Z,80.80
2019-01-09T21:18:45.820Z,81.20
2019-01-09T21:21:14.297Z,81.50
2019-01-09T21:23:44.636Z,82.30
2019-01-09T21:26:13.621Z,81.30
2019-01-09T21:28:43.866Z,81.30
2019-01-09T21:31:15.832Z,81.80
2019-01-09T21:33:45.135Z,82.10
2019-01-09T21:36:13.994Z,82.50
2019-01-09T21:38:42.403Z,82.60
2019-01-09T21:41:12.092Z,82.60
2019-01-09T21:43:40.944Z,82.70
2019-01-09T21:46:09.762Z,83.00
2019-01-09T21:48:40.465Z,83.10
2019-01-09T21:51:11.320Z,82.90
2019-01-09T21:53:40.832Z,83.20
2019-01-09T21:56:09.240Z,83.60
2019-01-09T21:58:42.143Z,83.80
2019-01-09T22:01:10.875Z,83.70
2019-01-09T22:03:39.282Z,83.80
2019-01-09T22:06:08.058Z,84.10
2019-01-09T22:08:39.099Z,83.80
2019-01-09T22:11:09.878Z,83.90
2019-01-09T22:13:39.145Z,85.10
2019-01-09T22:16:13.174Z,84.00
2019-01-09T22:18:58.742Z,83.50
2019-01-09T22:21:28.286Z,83.00
2019-01-09T22:23:56.281Z,82.80
2019-01-09T22:26:26.454Z,82.90
2019-01-09T22:28:57.897Z,83.30
2019-01-09T22:31:27.105Z,83.60
2019-01-09T22:33:55.554Z,83.80
2019-01-09T22:36:25.094Z,83.90
2019-01-09T22:38:54.426Z,84.20
2019-01-09T22:41:22.630Z,82.80
2019-01-09T22:43:51.267Z,82.80
2019-01-09T22:46:20.749Z,83.10
2019-01-09T22:48:49.435Z,83.50
2019-01-09T22:51:18.856Z,83.80
2019-01-09T22:53:46.986Z,83.80
2019-01-09T22:56:14.988Z,83.90
2019-01-09T22:58:44.781Z,83.90
2019-01-09T23:01:14.507Z,84.90
2019-01-09T23:03:44.032Z,84.00
2019-01-09T23:06:12.992Z,83.50
2019-01-09T23:08:41.160Z,83.50
2019-01-09T23:35:14.915Z,82.90
2019-01-09T23:37:42.881Z,83.20
2019-01-09T23:40:10.851Z,83.80
2019-01-09T23:42:38.921Z,82.80
2019-01-09T23:45:07.403Z,82.80
2019-01-09T23:47:35.781Z,82.10
2019-01-09T23:50:03.752Z,82.20
2019-01-09T23:52:31.723Z,81.80
2019-01-09T23:54:59.690Z,81.70
2019-01-09T23:57:27.630Z,81.70
2019-01-09T23:59:55.635Z,81.60
